Terminal Aerodrome Forecast
Issued by NWS

Home | Current Version | Previous Version | Text Only | Print | Product List | Glossary On
Versions: 1 2 3 4 5 6 7 8 9 10 11 12 13
000
FTUS45 KABQ 301100
TAFSAF
TAF
KSAF 301120Z 3012/3112 VRB05KT P6SM SCT250
     FM301800 26008KT P6SM FEW120 BKN200
     FM302200 26010G18KT P6SM VCSH BKN110
     FM310100 01010KT P6SM FEW120 SCT200=

USA.gov is the U.S. government's official web portal to all federal, state and local government web resources and services.